Airfield :
LOGIN :

Register | Disclaimer

   EN    FR    IT 

 










Legend :    VFR   Marginal VFR   IFR   Intensive IFR   Very Intensive IFR
Visi :
Ceiling :
>= 8 km
>= 3000ft
5 to 8 km
1000 to 3000 ft
1500m to 5 km
500 to 1000 ft
800 to 1500m
200 to 500 ft
< 800m
< 200 ft
Symbols :   Thunderstorms  Fog  Heavy snow  Heavy precipitations  Wind > 20 kt
SIGMETs :     Misc.  Thunderstorms  Icing  Turbulence  Mountain Waves  Volcanic Ashes






- Airport Elevation : 49 ft
- IATA code : SEN


EGMC - Southend

CURRENT METAR :
  • 131650Z 11009KT CAVOK 24/15 Q1024

EXPIRED METARs :
  • 131620Z 11009KT CAVOK 24/15 Q1025
  • 131550Z 11008KT CAVOK 24/15 Q1025
  • 131520Z 11010KT CAVOK 24/15 Q1025
  • 131450Z 15009KT CAVOK 25/15 Q1025
  • 131420Z 16009KT CAVOK 25/14 Q1025

TAF AMD TAF EGMC
Valid from the 13 at 15:00 until the 14 at 00:00 UTC


131530Z 1315/1324 11010KT 9999 FEW045
BECMG 1318/1321 20006KT



MET'MAP, your aeronautical weather chart ! - Copyright ORBIFLY December 2007 - Disclaimer

ORBIFLY MET'MAP TEAM :

Programming & Development : Alexandra Zaïnal
Concept & original design : Baudouin d'Aumeries
Assistance for programming : Marc-Olivier Méhu
Technical & hardware support : Manuel Goepfert

Contact : metmap@orbifly.com




SOURCES & CREDITS :

   NOAA